• Join FlightAware (Why Join?)
  • Login
  • US Flag 
05:32AM EDT


 

Airport Tracker/Info


-or-


 

Live Flight TrackerFlight Track Log ✈ UAL395 ✈ 03-May-2013 ✈ KLAS - KSFO

Flight Track Log - Related Links

Times and Time Zones

All times are in EDT time to prevent confusion due to time zone crossing. See the UAL395 flight status page for this flight to view local times or setup timezone preferences in your user account.

Time Position Orientation Groundspeed Altitude Reporting Facility
EDT Latitude Longitude Course Direction KTS MPH feet Rate Location/Type
12:28PM 36.0756 -115.1658 270° West 115 132 3,000  Level Los Angeles Center
12:29PM 36.0694 -115.2475 265° West 234 269 5,000 2,100 Climbing Los Angeles Center
12:30PM 35.9235 -115.3749 207° Southwest  Level FlightAware Approximate
12:30PM 36.0028 -115.2881 206° Southwest 283 326 7,500  Level Los Angeles Center
12:31PM 35.8834 -115.4704 270° West  Level FlightAware Approximate
12:31PM 35.9331 -115.3453 214° Southwest 301 346 10,400  Level Los Angeles Center
12:32PM 35.8833 -115.5963 270° West  Level FlightAware Approximate
12:32PM 35.8864 -115.4500 241° Southwest 330 380 12,000  Level Los Angeles Center
12:33PM 35.8834 -115.7223 270° West  Level FlightAware Approximate
12:33PM 35.8889 -115.5789 271° West 362 417 14,800  Level Los Angeles Center
12:34PM 35.8914 -115.7064 271° West 373 429 17,100 2,040 Climbing Los Angeles Center
12:35PM 35.8928 -115.8372 271° West 381 438 19,100 1,980 Climbing Los Angeles Center
12:36PM 35.9083 -115.9806 278° West 397 457 21,200 1,740 Climbing Los Angeles Center
12:37PM 35.9878 -116.0756 316° Northwest 400 460 22,800 1,560 Climbing Los Angeles Center
12:38PM 36.0806 -116.1831 317° Northwest 410 472 24,500 1,320 Climbing Los Angeles Center
12:39PM 36.1667 -116.2808 318° Northwest 419 482 25,600 1,080 Climbing Los Angeles Center
12:40PM 36.2550 -116.3839 317° Northwest 428 493 26,800 1,200 Climbing Los Angeles Center
12:41PM 36.3453 -116.4875 317° Northwest 436 502 28,100 1,500 Climbing Los Angeles Center
12:42PM 36.4372 -116.5950 317° Northwest 446 513 29,900 1,500 Climbing Los Angeles Center
12:43PM 36.5247 -116.6983 317° Northwest 441 507 31,300 960 Climbing Los Angeles Center
12:44PM 36.6436 -116.8081 323° Northwest 435 501 32,000 300 Climbing Los Angeles Center
12:45PM 36.7422 -116.8803 330° Northwest 430 495 32,000  Level Los Angeles Center
12:46PM 36.8500 -116.9628 329° Northwest 434 499 32,000  Level Los Angeles Center
12:47PM 36.9106 -117.0117 327° Northwest 434 499 32,000  Level Oakland Center
12:48PM 37.0139 -117.0922 328° Northwest 434 499 32,000  Level Oakland Center
12:49PM 37.1378 -117.1869 329° Northwest 435 501 32,000  Level Oakland Center
12:50PM 37.2406 -117.2664 328° Northwest 432 497 32,000  Level Oakland Center
12:51PM 37.3233 -117.3725 314° West 436 502 32,000  Level Oakland Center
12:52PM 37.3469 -117.5181 282° West 433 498 32,000  Level Oakland Center
12:53PM 37.3611 -117.6661 277° West 429 494 32,000  Level Oakland Center
12:54PM 37.3744 -117.8139 277° West 426 490 32,000  Level Oakland Center
12:55PM 37.3886 -117.9628 277° West 427 491 32,000  Level Oakland Center
12:56PM 37.4014 -118.1111 276° West 427 491 32,000  Level Oakland Center
12:57PM 37.4172 -118.2606 278° West 428 493 32,000  Level Oakland Center
12:58PM 37.4297 -118.4083 276° West 427 491 32,000  Level Oakland Center
12:59PM 37.4444 -118.5858 276° West 425 489 32,000  Level Oakland Center
01:00PM 37.4581 -118.7339 277° West 425 489 32,000  Level Oakland Center
01:01PM 37.4681 -118.8736 275° West 421 484 32,000  Level Oakland Center
01:02PM 37.4814 -119.0219 277° West 425 489 32,000  Level Oakland Center
01:03PM 37.4964 -119.1808 277° West 471 542 32,000  Level Oakland Center
01:04PM 37.5078 -119.3281 276° West 435 501 32,000  Level Oakland Center
01:06PM 37.5206 -119.4917 276° West 425 489 32,000  Level Oakland Center
01:07PM 37.5308 -119.6517 275° West 422 486 32,000 -180 Level Oakland Center
01:08PM 37.5431 -119.8003 276° West 426 490 31,700 -660 Descending Oakland Center
01:09PM 37.5539 -119.9436 275° West 414 476 30,700 -1,020 Descending Oakland Center
01:10PM 37.5647 -120.0939 275° West 417 480 29,700 -960 Descending Oakland Center
01:11PM 37.5789 -120.2375 277° West 407 468 28,800 -960 Descending Oakland Center
01:12PM 37.5881 -120.3856 275° West 419 482 27,800 -1,080 Descending Oakland Center
01:12PM 37.6000 -120.5000 278° West 418 481 26,900 -1,440 Descending Northern Cal TRACON
01:13PM 37.6000 -120.6667 270° West 415 478 25,300 -1,920 Descending Northern Cal TRACON
01:14PM 37.6167 -120.8000 279° West 411 473 23,100 -2,160 Descending Northern Cal TRACON
01:15PM 37.6333 -120.9333 279° West 403 464 21,000 -2,280 Descending Northern Cal TRACON
01:16PM 37.6167 -121.0667 261° West 398 458 18,600 -2,340 Descending Northern Cal TRACON
01:17PM 37.6000 -121.2000 261° West 390 449 16,400 -2,160 Descending Northern Cal TRACON
01:18PM 37.5833 -121.3333 261° West 373 429 14,300 -2,100 Descending Northern Cal TRACON
01:19PM 37.5667 -121.4500 260° West 360 414 12,300 -1,740 Descending Northern Cal TRACON
01:20PM 37.5500 -121.5667 260° West 342 394 11,000 -600 Descending Northern Cal TRACON
01:21PM 37.5167 -121.6833 250° West 326 375 11,100 -420 Climbing Northern Cal TRACON
01:22PM 37.5000 -121.7667 256° West 259 298 10,200 -960 Descending Northern Cal TRACON
01:23PM 37.4833 -121.8500 256° West 243 280 9,300 -1,140 Descending Northern Cal TRACON
01:24PM 37.5000 -121.9333 284° West 241 277 8,000 -1,320 Descending Northern Cal TRACON
01:25PM 37.5167 -122.0167 284° West 234 269 6,700 -1,320 Descending Northern Cal TRACON
01:26PM 37.5333 -122.0833 288° West 225 259 5,500 -1,380 Descending Northern Cal TRACON
01:27PM 37.5444 -122.1269 288° West 221 254 4,400 -1,260 Descending Oakland Center
01:28PM 37.5628 -122.1903 290° West 202 232 3,200 -1,200 Descending Oakland Center